Watertown Regional Airport
KATY : now visible

Aeroporto :











RITROVATECI SU...

 
LOGIN :

Iscrizione | Disclaimer

   EN    FR    IT 

 









Sommario :    VFR   VFR Marginale   IFR   IFR Intensivo   IFR Molto Intensivo
Visibilità : 
Base nubi : 
>= 8 km
>= 3000ft
5 / 8 km
1000 / 3000 ft
1500m / 5 km
500 / 1000 ft
800 / 1500m
200 / 500 ft
< 800m
< 200 ft
Simboli :   Temporali  Nebbia  Neve Forte  Precipitazioni Forti  Vento > 20 kt






- Altitudine del aeroporto : 1749 ft
- Codice IATA : ATY


KATY - Watertown Regional

ULTIMO METAR :
  • 220753Z AUTO 08005KT 10SM OVC008 18/17 A2989 RMK AO2 CIG 005V011 SLP114 T01830172

METARs OBSOLETI :
  • 220653Z AUTO 08004KT 10SM BKN007 OVC013 18/18 A2991 RMK AO2 CIG 004V009 SLP120 T01830178
  • 220553Z AUTO 12008KT 6SM BR OVC005 19/18 A2994 RMK AO2 SLP132 T01890178 10200 20189 402170150 58001
  • 220453Z AUTO 11007KT 10SM OVC007 19/18 A2995 RMK AO2 SLP134 T01890178
  • 220353Z AUTO 07011G16KT 8SM OVC006 19/18 A2995 RMK AO2 CIG 005V010 SLP137 T01890178

TAF KATY
Valido dal 22 a 06 ore il 23 a 06 ore UTC


220524Z 2206/2306 09008KT P6SM OVC007
FM220800 08005KT 1SM BR OVC005
TEMPO 2211/2215 04005KT 3/4SM -TSRA BR SCT005 BKN030CB
FM221500 34006KT P6SM VCSH OVC004
FM222000 33010KT P6SM SCT023 BKN028
FM230300 30004KT P6SM FEW027 SCT200
FIR KZMP / America del Nord



MetMap, La meteo Aeronautica in un colpo d'occhio ! - Copyright ORBIFLY Dicembre 2007 - Disclaimer

ORBIFLY MET'MAP TEAM :

Programmazione e sviluppo : Alexandra Zaïnal
Concezione : Baudouin d'Aumeries
Supporto tecnico e logistico : Manuel Goepfert
Aiuto : Marc-Olivier Méhu
Aiuto per la traduzione : Arnaldo La Scala




FONTI E CREDITI :

   NOAA       Earth
Advisory